Time;durP1;ratioP1;P1;durP2;ratioP2;P2;SDS_P1;SDS_P2;PMS_P1;PMS_P2;Temp;Humidity;BMP_temperature;BMP_pressure;BME280_temperature;BME280_humidity;BME280_pressure;Samples;Min_cycle;Max_cycle;Signal;HPM_P1;HPM_P2
2021/09/23 00:00:36;;;;;;;7.60;1.38;;;;;;;12.21;87.22;100005.56;4991562;28;20031;-64
2021/09/23 00:03:10;;;;;;;5.78;1.40;;;;;;;12.17;87.33;100015.22;4984458;28;20133;-64
2021/09/23 00:05:36;;;;;;;;;;;;;;;12.10;87.99;100023.47;4993130;28;20037;-64
2021/09/23 00:08:03;;;;;;;7.32;1.52;;;;;;;12.03;88.32;100019.31;4989371;28;19913;-64
2021/09/23 00:10:32;;;;;;;9.60;1.48;;;;;;;12.08;88.32;100011.31;4990097;28;20043;-64
2021/09/23 00:12:58;;;;;;;23.65;1.83;;;;;;;12.03;88.42;100001.22;4973906;28;20107;-63
2021/09/23 00:15:25;;;;;;;10.98;1.52;;;;;;;11.94;88.54;100006.19;4990724;28;20042;-64
2021/09/23 00:17:55;;;;;;;8.60;1.30;;;;;;;11.81;89.43;100001.94;4989903;28;20031;-64
2021/09/23 00:20:24;;;;;;;4.85;1.38;;;;;;;11.78;89.74;100002.41;4988046;28;20069;-64
2021/09/23 00:22:51;;;;;;;5.07;1.33;;;;;;;11.84;89.89;100003.34;4993414;28;20099;-64
2021/09/23 00:25:17;;;;;;;7.10;1.45;;;;;;;11.80;89.94;99992.19;4989559;28;20402;-64
2021/09/23 00:27:43;;;;;;;13.65;1.67;;;;;;;11.72;90.55;99998.00;4991133;28;20038;-64
2021/09/23 00:30:09;;;;;;;5.78;1.20;;;;;;;11.72;90.65;99987.22;4988273;28;20057;-64
2021/09/23 00:32:36;;;;;;;3.40;1.27;;;;;;;11.71;90.87;99989.09;4990115;28;20030;-64
2021/09/23 00:35:03;;;;;;;3.28;1.13;;;;;;;11.69;91.32;99995.78;4990477;28;20042;-64
2021/09/23 00:37:30;;;;;;;8.40;1.60;;;;;;;11.79;91.17;99989.75;4989495;28;20037;-64
2021/09/23 00:39:56;;;;;;;6.03;1.35;;;;;;;11.75;90.92;99988.63;4993054;28;20042;-64
2021/09/23 00:42:22;;;;;;;5.18;1.40;;;;;;;11.75;91.25;99977.81;4990161;28;20096;-64
2021/09/23 00:44:55;;;;;;;8.93;1.67;;;;;;;11.77;91.10;99976.50;4989038;28;20506;-63
2021/09/23 00:47:20;;;;;;;8.00;1.67;;;;;;;11.77;91.27;99973.00;4990062;28;20034;-63
2021/09/23 00:49:46;;;;;;;3.97;1.20;;;;;;;11.75;91.20;99977.81;4991703;28;20042;-63
2021/09/23 00:52:12;;;;;;;6.60;1.40;;;;;;;11.77;90.73;99979.19;4992320;28;20042;-63
2021/09/23 00:54:37;;;;;;;7.18;1.90;;;;;;;11.75;91.16;99981.31;4987477;28;20595;-63
2021/09/23 00:57:03;;;;;;;5.18;1.63;;;;;;;11.73;91.26;99979.94;4991220;28;20054;-63
2021/09/23 00:59:28;;;;;;;10.25;1.38;;;;;;;11.71;91.43;99996.38;4989640;28;20034;-63
2021/09/23 01:01:54;;;;;;;7.68;1.55;;;;;;;11.67;91.62;99996.03;4988746;28;20048;-63
2021/09/23 01:04:19;;;;;;;7.70;2.15;;;;;;;11.64;91.73;99996.53;4984925;28;20044;-63
2021/09/23 01:06:49;;;;;;;5.90;1.52;;;;;;;11.63;91.73;99996.75;4989154;28;20037;-64
2021/09/23 01:09:14;;;;;;;5.03;1.40;;;;;;;11.66;91.75;99988.19;4988531;28;20042;-63
2021/09/23 01:11:40;;;;;;;5.50;1.70;;;;;;;11.64;91.96;99982.22;4987608;28;20035;-63
2021/09/23 01:14:06;;;;;;;8.95;1.90;;;;;;;11.61;92.06;99974.59;4991699;28;20034;-63
2021/09/23 01:16:32;;;;;;;8.30;1.83;;;;;;;11.63;92.23;99972.47;4986941;28;20034;-63
2021/09/23 01:18:58;;;;;;;3.72;1.50;;;;;;;11.64;92.34;99974.13;4989324;28;20383;-63
2021/09/23 01:21:23;;;;;;;9.15;1.90;;;;;;;11.68;92.23;99972.56;4987843;28;20053;-64
2021/09/23 01:23:49;;;;;;;6.25;1.55;;;;;;;11.71;92.44;99963.97;4992314;28;20042;-63
2021/09/23 01:26:26;;;;;;;8.00;1.70;;;;;;;11.75;92.23;99959.75;4987873;28;20035;-64
2021/09/23 01:28:53;;;;;;;6.57;1.63;;;;;;;11.81;92.12;99953.34;4989166;28;20125;-64
2021/09/23 01:31:20;;;;;;;7.43;1.80;;;;;;;11.92;91.39;99958.91;4987843;28;20034;-63
2021/09/23 01:33:46;;;;;;;5.85;1.60;;;;;;;11.94;91.62;99957.63;4991912;28;20035;-64
2021/09/23 01:36:11;;;;;;;7.13;1.60;;;;;;;11.96;91.60;99941.16;4990638;28;20471;-63
2021/09/23 01:38:37;;;;;;;8.10;1.80;;;;;;;11.97;91.71;99940.09;4987537;28;20535;-63
2021/09/23 01:41:03;;;;;;;7.13;1.77;;;;;;;12.04;92.03;99940.78;4991518;28;20094;-64
2021/09/23 01:43:28;;;;;;;10.13;1.50;;;;;;;12.08;92.03;99943.81;4990347;28;20136;-63
2021/09/23 01:45:54;;;;;;;5.22;1.88;;;;;;;12.09;91.85;99942.75;4988810;28;20043;-63
2021/09/23 01:48:19;;;;;;;6.88;1.80;;;;;;;12.11;91.86;99938.72;4987043;28;20038;-64
2021/09/23 01:50:46;;;;;;;5.05;1.60;;;;;;;12.19;91.83;99925.84;4991437;28;20487;-63
2021/09/23 01:53:12;;;;;;;8.02;1.55;;;;;;;12.26;91.57;99921.09;4986744;28;20562;-63
2021/09/23 01:55:37;;;;;;;6.88;1.70;;;;;;;12.26;91.56;99913.00;4988074;28;20042;-63
2021/09/23 01:58:03;;;;;;;7.13;2.22;;;;;;;12.30;91.51;99906.88;4990902;28;20088;-63
2021/09/23 02:00:29;;;;;;;7.57;1.75;;;;;;;12.38;91.31;99907.50;4986792;28;20395;-63
2021/09/23 02:02:55;;;;;;;9.43;1.70;;;;;;;12.46;91.01;99909.75;4988416;28;20054;-63
2021/09/23 02:05:21;;;;;;;8.98;1.75;;;;;;;12.48;90.67;99898.72;4991126;28;20042;-63
2021/09/23 02:07:47;;;;;;;5.68;1.90;;;;;;;12.58;90.07;99902.34;4990103;28;20039;-63
2021/09/23 02:10:13;;;;;;;6.15;1.75;;;;;;;12.57;90.23;99895.31;4974350;28;20045;-64
2021/09/23 02:12:40;;;;;;;7.43;1.42;;;;;;;12.63;90.06;99895.38;4973264;28;20038;-63
2021/09/23 02:15:06;;;;;;;8.80;1.77;;;;;;;12.65;90.13;99904.03;4989706;28;20057;-64
2021/09/23 02:17:32;;;;;;;7.15;1.80;;;;;;;12.71;90.29;99894.91;4987497;28;20049;-64
2021/09/23 02:19:58;;;;;;;12.63;1.50;;;;;;;12.69;90.36;99907.88;4970511;28;20110;-63
2021/09/23 02:22:24;;;;;;;6.45;1.40;;;;;;;12.79;90.15;99894.47;4972398;28;20129;-63
2021/09/23 02:24:51;;;;;;;5.28;1.23;;;;;;;12.87;90.16;99896.72;4988661;28;20077;-63
2021/09/23 02:27:19;;;;;;;5.60;1.40;;;;;;;12.87;90.15;99896.72;4989515;28;20038;-63
2021/09/23 02:29:45;;;;;;;7.78;1.42;;;;;;;12.95;89.93;99898.16;4986957;28;20030;-65
2021/09/23 02:32:11;;;;;;;10.07;1.60;;;;;;;12.99;89.94;99895.75;4978782;28;20044;-64
2021/09/23 02:34:36;;;;;;;8.27;1.98;;;;;;;13.00;89.85;99892.81;4989678;28;20046;-63
2021/09/23 02:37:02;;;;;;;10.27;1.80;;;;;;;12.98;89.45;99886.00;4992103;28;20030;-63
2021/09/23 02:39:28;;;;;;;13.23;1.55;;;;;;;13.02;90.16;99884.44;4989408;28;20053;-64
2021/09/23 02:41:53;;;;;;;12.05;1.65;;;;;;;13.11;89.59;99868.56;4992154;28;20039;-64
2021/09/23 02:44:19;;;;;;;10.60;1.42;;;;;;;13.12;89.53;99864.78;4996932;28;20104;-63
2021/09/23 02:46:45;;;;;;;7.07;1.55;;;;;;;13.20;89.18;99856.22;4995482;28;20038;-63
2021/09/23 02:49:11;;;;;;;8.60;1.60;;;;;;;13.23;89.11;99860.28;4995796;28;20097;-63
2021/09/23 02:51:37;;;;;;;8.38;1.40;;;;;;;13.26;88.78;99859.78;4982666;28;20041;-63
2021/09/23 02:54:02;;;;;;;8.73;1.52;;;;;;;13.26;88.72;99866.00;4990576;28;20034;-64
2021/09/23 02:56:28;;;;;;;8.82;1.65;;;;;;;13.26;89.11;99867.91;4994891;28;20038;-63
2021/09/23 02:58:54;;;;;;;12.77;1.65;;;;;;;13.26;89.28;99852.47;4993163;28;20074;-64
2021/09/23 03:01:20;;;;;;;8.68;1.48;;;;;;;13.22;90.50;99848.66;4994997;28;20038;-63
2021/09/23 03:03:46;;;;;;;13.77;1.50;;;;;;;13.13;92.22;99853.72;4985968;28;20038;-63
2021/09/23 03:06:12;;;;;;;7.30;1.95;;;;;;;13.02;93.38;99858.22;4989197;28;20117;-63
2021/09/23 03:08:38;;;;;;;9.32;1.85;;;;;;;12.89;94.92;99856.72;4990475;28;20045;-63
2021/09/23 03:11:05;;;;;;;12.35;1.80;;;;;;;12.81;95.77;99856.38;4983834;28;20066;-63
2021/09/23 03:13:30;;;;;;;11.60;2.00;;;;;;;12.66;97.32;99847.06;4996640;28;20069;-63
2021/09/23 03:15:56;;;;;;;11.75;2.58;;;;;;;12.59;98.13;99847.22;4991580;28;20062;-64
2021/09/23 03:18:22;;;;;;;9.70;2.53;;;;;;;12.52;99.29;99843.13;4986538;28;20467;-63
2021/09/23 03:20:48;;;;;;;13.90;2.95;;;;;;;12.46;99.94;99836.81;4985306;28;20052;-64
2021/09/23 03:23:15;;;;;;;17.15;3.40;;;;;;;12.40;100.00;99829.72;4992495;28;20038;-63
2021/09/23 03:25:42;;;;;;;11.68;2.72;;;;;;;12.37;100.00;99835.63;4992125;28;20055;-63
2021/09/23 03:28:08;;;;;;;12.20;3.40;;;;;;;12.35;100.00;99832.38;4997695;28;20049;-63
2021/09/23 03:30:35;;;;;;;11.18;3.50;;;;;;;12.34;100.00;99830.75;4995564;28;20030;-63
2021/09/23 03:33:05;;;;;;;16.33;3.50;;;;;;;12.31;100.00;99823.94;4993046;28;20047;-63
2021/09/23 03:35:32;;;;;;;10.05;3.42;;;;;;;12.28;100.00;99829.84;4995787;28;20069;-63
2021/09/23 03:37:58;;;;;;;10.07;3.95;;;;;;;12.26;100.00;99822.00;4984808;28;20525;-63
2021/09/23 03:40:24;;;;;;;11.38;3.60;;;;;;;12.26;100.00;99826.59;4995735;28;20052;-63
2021/09/23 03:42:50;;;;;;;14.40;4.03;;;;;;;12.24;100.00;99826.03;4996899;28;20121;-63
2021/09/23 03:45:15;;;;;;;8.27;4.18;;;;;;;12.23;100.00;99821.69;4994937;28;20133;-64
2021/09/23 03:47:41;;;;;;;15.18;4.05;;;;;;;12.23;100.00;99816.28;4994411;28;20461;-63
2021/09/23 03:50:07;;;;;;;10.00;4.03;;;;;;;12.23;100.00;99803.63;4986314;28;20476;-63
2021/09/23 03:52:33;;;;;;;14.25;4.50;;;;;;;12.23;100.00;99802.78;4963846;28;20093;-63
2021/09/23 03:54:59;;;;;;;12.60;4.15;;;;;;;12.22;100.00;99793.88;4987610;28;20464;-63
2021/09/23 03:57:26;;;;;;;16.38;4.40;;;;;;;12.25;100.00;99790.69;4991993;28;20515;-64
2021/09/23 03:59:53;;;;;;;10.52;3.80;;;;;;;12.27;100.00;99780.44;4992182;28;20038;-64
2021/09/23 04:02:19;;;;;;;12.13;3.80;;;;;;;12.29;100.00;99778.31;4994414;28;20042;-63
2021/09/23 04:04:44;;;;;;;11.38;3.67;;;;;;;12.32;100.00;99768.88;4991671;28;20045;-63
2021/09/23 04:07:10;;;;;;;11.90;3.80;;;;;;;12.40;100.00;99765.75;4989574;28;20030;-63
2021/09/23 04:09:36;;;;;;;14.93;3.75;;;;;;;12.43;100.00;99776.03;4993699;28;20511;-63
2021/09/23 04:12:02;;;;;;;16.15;4.05;;;;;;;12.47;100.00;99772.81;4992038;28;20038;-63
2021/09/23 04:14:27;;;;;;;12.10;2.80;;;;;;;12.53;100.00;99778.00;4992248;28;20041;-63
2021/09/23 04:16:53;;;;;;;12.05;3.35;;;;;;;12.64;100.00;99778.09;4977858;28;20468;-64
2021/09/23 04:19:19;;;;;;;9.88;2.88;;;;;;;12.68;100.00;99771.13;4979252;28;20034;-63
2021/09/23 04:21:44;;;;;;;17.38;3.00;;;;;;;12.73;100.00;99761.19;4991987;28;20041;-63
2021/09/23 04:24:10;;;;;;;15.75;2.63;;;;;;;12.84;100.00;99753.16;4987375;28;20033;-63
2021/09/23 04:26:36;;;;;;;10.75;2.60;;;;;;;12.92;100.00;99755.41;4988022;28;20052;-64
2021/09/23 04:29:02;;;;;;;10.60;3.05;;;;;;;13.00;100.00;99754.94;4990961;28;20112;-63
2021/09/23 04:31:28;;;;;;;8.40;2.30;;;;;;;13.06;100.00;99741.44;4991360;28;20495;-63
2021/09/23 04:33:54;;;;;;;9.98;2.47;;;;;;;13.07;100.00;99741.16;4991745;28;20038;-63
2021/09/23 04:36:19;;;;;;;8.48;2.47;;;;;;;13.11;100.00;99741.47;4989080;28;20029;-63
2021/09/23 04:38:44;;;;;;;8.40;2.30;;;;;;;13.20;100.00;99744.50;4991074;28;20114;-64
2021/09/23 04:41:11;;;;;;;9.98;2.67;;;;;;;13.27;100.00;99737.81;4992010;28;20045;-63
2021/09/23 04:43:39;;;;;;;9.57;3.08;;;;;;;13.25;100.00;99739.13;4986424;28;20034;-63
2021/09/23 04:46:04;;;;;;;11.00;2.97;;;;;;;13.27;100.00;99735.09;4978926;28;20397;-64
2021/09/23 04:48:30;;;;;;;9.07;3.70;;;;;;;13.36;100.00;99727.31;4990565;28;20546;-63
2021/09/23 04:50:55;;;;;;;12.48;2.95;;;;;;;13.35;100.00;99730.28;4979090;28;20038;-63
2021/09/23 04:53:21;;;;;;;9.48;2.58;;;;;;;13.45;99.60;99708.72;4997954;28;20069;-63
2021/09/23 04:55:46;;;;;;;8.10;3.20;;;;;;;13.44;99.34;99710.63;4994699;28;20077;-63
2021/09/23 04:58:12;;;;;;;11.38;3.13;;;;;;;13.45;99.69;99714.97;4972112;28;20105;-63
2021/09/23 05:00:37;;;;;;;6.88;3.05;;;;;;;13.49;100.00;99717.94;4993366;28;20034;-63
2021/09/23 05:03:03;;;;;;;11.05;3.72;;;;;;;13.45;100.00;99717.66;4990720;28;20064;-63
2021/09/23 05:05:29;;;;;;;9.63;3.40;;;;;;;13.44;100.00;99721.44;4991463;28;20137;-63
2021/09/23 05:07:54;;;;;;;10.30;3.60;;;;;;;13.46;100.00;99715.75;4991125;28;20034;-63
2021/09/23 05:10:20;;;;;;;7.80;3.20;;;;;;;13.49;100.00;99720.66;4989575;28;20113;-63
2021/09/23 05:12:45;;;;;;;11.18;3.17;;;;;;;13.48;100.00;99712.81;4990731;28;20048;-63
2021/09/23 05:15:12;;;;;;;9.05;3.00;;;;;;;13.42;100.00;99707.38;4989657;28;20058;-63
2021/09/23 05:17:38;;;;;;;5.18;2.50;;;;;;;13.39;100.00;99698.91;4988925;28;20034;-63
2021/09/23 05:20:06;;;;;;;6.60;2.30;;;;;;;13.36;100.00;99700.28;4990386;28;20669;-63
2021/09/23 05:22:31;;;;;;;10.82;2.20;;;;;;;13.39;100.00;99698.91;4987387;28;20096;-63
2021/09/23 05:24:56;;;;;;;6.28;1.70;;;;;;;13.35;100.00;99703.22;4991458;28;20488;-63
2021/09/23 05:27:23;;;;;;;9.25;1.80;;;;;;;13.35;100.00;99708.63;4988550;28;20027;-63
2021/09/23 05:29:48;;;;;;;7.70;2.03;;;;;;;13.37;100.00;99707.31;4989989;28;20035;-63
2021/09/23 05:32:14;;;;;;;9.20;1.85;;;;;;;13.35;100.00;99705.94;4990969;28;20046;-63
2021/09/23 05:34:40;;;;;;;10.30;2.40;;;;;;;13.43;100.00;99706.28;4988270;28;20035;-64
2021/09/23 05:37:05;;;;;;;7.05;2.00;;;;;;;13.42;100.00;99704.66;4989905;28;20061;-64
2021/09/23 05:39:31;;;;;;;8.43;2.17;;;;;;;13.39;100.00;99707.88;4990077;28;20062;-65
2021/09/23 05:41:56;;;;;;;6.47;2.03;;;;;;;13.42;100.00;99710.06;4989969;28;20487;-64
2021/09/23 05:44:25;;;;;;;6.55;2.20;;;;;;;13.44;100.00;99709.81;4990557;28;20454;-64
2021/09/23 05:46:52;;;;;;;6.25;2.20;;;;;;;13.59;100.00;99709.88;4987676;28;20038;-64
2021/09/23 05:49:18;;;;;;;8.30;1.88;;;;;;;13.52;100.00;99714.72;4988153;28;20026;-64
2021/09/23 05:51:43;;;;;;;8.25;1.77;;;;;;;13.50;100.00;99707.94;4989906;28;20446;-64
2021/09/23 05:54:09;;;;;;;6.55;2.05;;;;;;;13.46;100.00;99704.94;4987900;28;20177;-64
2021/09/23 05:56:35;;;;;;;4.20;1.60;;;;;;;13.52;100.00;99698.47;4989406;28;20056;-64
2021/09/23 05:59:00;;;;;;;10.70;1.98;;;;;;;13.50;100.00;99695.22;4988417;28;20030;-64
2021/09/23 06:01:25;;;;;;;5.45;1.60;;;;;;;13.51;100.00;99701.47;4989993;28;20040;-64
2021/09/23 06:03:51;;;;;;;6.32;1.98;;;;;;;13.48;100.00;99699.28;4973032;28;20030;-64
2021/09/23 06:06:17;;;;;;;4.28;1.60;;;;;;;13.50;100.00;99697.94;4988495;28;20105;-64
2021/09/23 06:08:43;;;;;;;11.18;2.10;;;;;;;13.55;100.00;99697.16;4990978;28;20443;-64
2021/09/23 06:11:10;;;;;;;7.63;2.55;;;;;;;13.65;100.00;99707.19;4986856;28;20515;-64
2021/09/23 06:13:36;;;;;;;8.13;2.70;;;;;;;13.63;100.00;99720.16;4989325;28;20066;-64
2021/09/23 06:16:01;;;;;;;8.38;2.30;;;;;;;13.64;100.00;99717.22;4987057;28;20108;-66
2021/09/23 06:18:27;;;;;;;7.05;2.90;;;;;;;13.69;100.00;99719.13;4985672;28;20039;-65
2021/09/23 06:20:53;;;;;;;11.60;3.30;;;;;;;13.73;100.00;99721.03;4981404;28;20038;-66
2021/09/23 06:23:18;;;;;;;7.10;3.72;;;;;;;13.85;100.00;99723.50;4988101;28;20029;-66
2021/09/23 06:25:44;;;;;;;6.93;4.00;;;;;;;13.91;100.00;99710.81;4983302;28;20503;-65
2021/09/23 06:28:10;;;;;;;8.13;5.97;;;;;;;13.95;100.00;99720.03;4986395;28;20403;-67
2021/09/23 06:30:37;;;;;;;13.20;10.60;;;;;;;14.06;100.00;99718.16;4989521;28;20070;-65
2021/09/23 06:33:04;;;;;;;13.63;12.30;;;;;;;14.13;99.88;99721.44;4986588;28;20530;-65
2021/09/23 06:35:30;;;;;;;16.02;11.45;;;;;;;14.10;100.00;99727.38;4987308;28;20045;-66
2021/09/23 06:37:56;;;;;;;15.70;13.48;;;;;;;14.09;99.74;99728.47;4984226;28;20046;-65
2021/09/23 06:40:21;;;;;;;15.18;12.65;;;;;;;14.15;98.76;99721.19;4986457;28;20127;-66
2021/09/23 06:42:47;;;;;;;14.95;12.32;;;;;;;14.15;98.68;99737.44;4985314;28;20066;-65
2021/09/23 06:45:14;;;;;;;18.17;13.15;;;;;;;14.24;98.17;99746.66;4984422;28;20148;-66
2021/09/23 06:47:40;;;;;;;16.20;10.95;;;;;;;14.27;97.77;99740.72;4984099;28;20034;-65
2021/09/23 06:50:07;;;;;;;14.80;10.88;;;;;;;14.32;97.45;99743.44;4984652;28;20610;-65
2021/09/23 06:52:32;;;;;;;15.52;12.50;;;;;;;14.41;97.20;99740.22;4984006;28;20476;-66
2021/09/23 06:54:59;;;;;;;12.93;11.68;;;;;;;14.50;97.12;99741.31;4980671;28;20030;-64
2021/09/23 06:57:24;;;;;;;11.25;10.05;;;;;;;14.57;96.16;99741.84;4988298;28;20041;-66
2021/09/23 06:59:51;;;;;;;15.35;10.20;;;;;;;14.66;96.36;99733.19;4988044;28;20396;-65
2021/09/23 07:02:16;;;;;;;10.23;7.80;;;;;;;14.77;95.32;99724.84;4991092;28;20061;-65
2021/09/23 07:04:41;;;;;;;8.13;7.03;;;;;;;14.73;95.71;99721.03;4980580;28;20029;-65
2021/09/23 07:07:07;;;;;;;5.15;4.40;;;;;;;14.87;94.68;99701.50;4981195;28;20054;-65
2021/09/23 07:09:33;;;;;;;4.25;3.47;;;;;;;14.98;93.91;99703.13;4982372;28;20651;-65
2021/09/23 07:12:00;;;;;;;3.25;2.60;;;;;;;14.96;93.69;99704.47;4989489;28;20122;-66
2021/09/23 07:14:25;;;;;;;6.18;3.45;;;;;;;15.02;93.19;99704.22;4988779;28;20057;-66
2021/09/23 07:16:51;;;;;;;3.75;2.60;;;;;;;15.02;94.38;99716.94;4987626;28;20452;-65
2021/09/23 07:19:18;;;;;;;3.00;1.83;;;;;;;15.19;92.26;99727.50;4985569;28;20038;-66
2021/09/23 07:21:44;;;;;;;6.18;1.40;;;;;;;15.26;91.33;99743.53;4987695;28;20062;-65
2021/09/23 07:24:10;;;;;;;2.20;1.10;;;;;;;15.23;90.90;99736.72;4987216;28;20062;-65
2021/09/23 07:26:35;;;;;;;3.75;1.00;;;;;;;15.26;91.37;99730.75;4989205;28;20030;-65
2021/09/23 07:29:01;;;;;;;4.43;1.20;;;;;;;15.38;89.60;99741.34;4992497;28;20081;-65
2021/09/23 07:31:27;;;;;;;1.80;0.80;;;;;;;15.40;90.15;99738.31;4991957;28;20034;-66
2021/09/23 07:33:52;;;;;;;2.53;0.75;;;;;;;15.30;91.29;99756.25;4992214;28;20109;-66
2021/09/23 07:36:18;;;;;;;4.32;1.13;;;;;;;15.37;89.41;99751.34;4983240;28;20491;-65
2021/09/23 07:38:44;;;;;;;2.75;0.90;;;;;;;15.35;88.67;99756.25;4988085;28;20114;-65
2021/09/23 07:41:10;;;;;;;4.78;0.90;;;;;;;15.52;86.50;99760.56;4991619;28;20455;-64
2021/09/23 07:43:36;;;;;;;4.15;1.15;;;;;;;15.52;86.94;99741.56;4992394;28;20044;-66
2021/09/23 07:46:02;;;;;;;6.13;1.23;;;;;;;15.46;85.59;99740.75;4992650;28;20034;-64
2021/09/23 07:48:28;;;;;;;8.70;1.40;;;;;;;15.54;86.00;99744.81;4992161;28;20085;-66
2021/09/23 07:50:54;;;;;;;5.90;1.17;;;;;;;15.53;84.07;99748.59;4990669;28;20514;-64
2021/09/23 07:53:19;;;;;;;6.28;1.58;;;;;;;15.63;84.54;99748.56;4973089;28;20106;-64
2021/09/23 07:55:46;;;;;;;4.28;1.02;;;;;;;15.76;82.42;99754.50;4980870;28;20030;-64
2021/09/23 07:58:12;;;;;;;6.50;1.42;;;;;;;15.70;82.81;99759.16;4989209;28;20476;-64
2021/09/23 08:00:39;;;;;;;5.13;1.15;;;;;;;15.75;81.63;99753.72;4990137;28;20400;-64
2021/09/23 08:03:04;;;;;;;8.50;1.85;;;;;;;15.85;81.50;99746.63;4983580;28;20974;-64
2021/09/23 08:05:30;;;;;;;6.18;1.10;;;;;;;15.94;80.68;99744.97;4992542;28;20037;-64
2021/09/23 08:07:58;;;;;;;10.00;1.63;;;;;;;16.05;81.30;99737.59;4992200;28;20034;-64
2021/09/23 08:10:24;;;;;;;7.63;1.40;;;;;;;16.18;79.16;99725.28;4978705;28;20034;-64
2021/09/23 08:12:50;;;;;;;9.40;1.42;;;;;;;16.14;78.92;99732.38;4978011;28;20495;-64
2021/09/23 08:15:18;;;;;;;4.20;1.33;;;;;;;16.18;78.12;99720.69;4965901;28;20523;-64
2021/09/23 08:17:45;;;;;;;9.55;1.55;;;;;;;16.15;78.26;99723.16;4993692;28;20038;-64
2021/09/23 08:20:11;;;;;;;4.50;1.13;;;;;;;16.24;76.76;99754.91;4983994;28;20041;-64
2021/09/23 08:22:37;;;;;;;7.63;1.83;;;;;;;16.20;76.49;99758.44;4994152;28;20030;-64
2021/09/23 08:25:04;;;;;;;5.75;1.17;;;;;;;16.27;75.74;99739.13;4980016;28;20421;-66
2021/09/23 08:27:29;;;;;;;6.18;1.35;;;;;;;16.29;74.79;99726.88;4975521;28;20033;-66
2021/09/23 08:29:55;;;;;;;5.55;1.52;;;;;;;16.36;75.09;99743.66;4989981;28;20032;-66
2021/09/23 08:32:20;;;;;;;5.45;1.05;;;;;;;16.48;74.50;99732.47;4986970;28;20061;-66
2021/09/23 08:34:47;;;;;;;7.57;1.35;;;;;;;16.56;73.62;99731.03;4986219;28;20172;-66
2021/09/23 08:37:13;;;;;;;13.18;1.35;;;;;;;16.67;73.09;99738.03;4989946;28;20480;-66
2021/09/23 08:39:39;;;;;;;7.20;1.10;;;;;;;16.62;72.02;99742.69;4987887;28;20031;-66
2021/09/23 08:42:05;;;;;;;7.82;0.80;;;;;;;16.59;72.01;99732.38;4989638;28;20043;-64
2021/09/23 08:44:30;;;;;;;6.03;1.13;;;;;;;16.57;72.78;99738.09;4982066;28;20054;-64
2021/09/23 08:46:56;;;;;;;6.25;1.17;;;;;;;16.83;74.14;99744.16;4985541;28;20042;-64
2021/09/23 08:49:22;;;;;;;5.72;0.95;;;;;;;17.08;71.76;99757.88;4986583;28;20037;-65
2021/09/23 08:51:48;;;;;;;4.43;0.90;;;;;;;17.01;68.50;99736.44;4990501;28;20038;-64
2021/09/23 08:54:16;;;;;;;3.97;0.80;;;;;;;17.11;69.85;99735.53;4972258;28;20411;-66
2021/09/23 08:56:41;;;;;;;3.28;0.98;;;;;;;17.01;68.44;99749.25;4987913;28;20109;-66
2021/09/23 08:59:07;;;;;;;4.63;1.00;;;;;;;17.08;68.30;99741.56;4989182;28;20106;-64
2021/09/23 09:01:45;;;;;;;5.20;1.00;;;;;;;17.06;68.36;99751.91;4989535;28;20161;-65
2021/09/23 09:04:10;;;;;;;3.38;0.88;;;;;;;17.18;68.09;99755.06;4990428;28;20051;-65
2021/09/23 09:06:37;;;;;;;7.43;1.00;;;;;;;17.65;67.41;99760.03;4985368;28;20488;-65
2021/09/23 09:09:04;;;;;;;5.10;1.15;;;;;;;17.70;66.07;99760.81;4985787;28;20042;-66
2021/09/23 09:11:30;;;;;;;6.10;1.00;;;;;;;17.66;65.44;99740.66;4991019;28;20038;-65
2021/09/23 09:13:56;;;;;;;4.63;0.90;;;;;;;17.39;64.38;99761.09;4988203;28;20026;-65
2021/09/23 09:16:25;;;;;;;9.10;1.48;;;;;;;17.17;65.75;99767.03;4987187;28;20168;-65
2021/09/23 09:18:53;;;;;;;4.25;1.10;;;;;;;17.16;65.90;99761.88;4988762;28;20479;-66
2021/09/23 09:21:21;;;;;;;7.85;1.70;;;;;;;17.29;65.08;99757.69;4989174;28;20038;-65
2021/09/23 09:23:55;;;;;;;5.43;1.63;;;;;;;17.29;66.00;99755.75;4984550;28;20073;-65
2021/09/23 09:26:39;;;;;;;10.98;1.33;;;;;;;17.18;66.42;99771.41;4978228;28;20480;-65
2021/09/23 09:29:07;;;;;;;8.75;1.27;;;;;;;17.16;65.46;99767.31;4988663;28;20046;-65
2021/09/23 09:31:34;;;;;;;3.70;1.15;;;;;;;16.94;65.53;99763.13;4983902;28;20042;-65
2021/09/23 09:34:02;;;;;;;7.13;1.38;;;;;;;17.03;66.31;99763.38;4990146;28;20053;-65
2021/09/23 09:36:28;;;;;;;4.85;1.73;;;;;;;16.91;65.62;99774.56;4989268;28;20033;-65
2021/09/23 09:38:54;;;;;;;11.40;1.48;;;;;;;17.16;66.79;99759.97;4981548;28;20034;-66
2021/09/23 09:41:29;;;;;;;10.63;1.58;;;;;;;17.41;65.21;99766.28;4985361;28;20120;-65
2021/09/23 09:43:57;;;;;;;7.15;1.42;;;;;;;17.08;66.89;99768.75;4988279;28;20384;-66
2021/09/23 09:46:31;;;;;;;11.25;1.58;;;;;;;17.21;67.21;99775.44;4990009;28;20062;-65
2021/09/23 09:48:57;;;;;;;9.18;1.27;;;;;;;17.32;65.95;99774.25;4989460;28;20073;-66
2021/09/23 09:51:34;;;;;;;5.35;0.93;;;;;;;17.50;65.91;99780.88;4980406;28;20046;-66
2021/09/23 09:54:02;;;;;;;4.80;1.10;;;;;;;17.77;63.80;99770.53;4989396;28;20022;-65
2021/09/23 09:56:28;;;;;;;6.93;1.40;;;;;;;16.91;63.53;99777.28;4988482;28;20456;-65
2021/09/23 09:59:14;;;;;;;6.10;1.13;;;;;;;17.08;64.23;99790.53;4987865;28;20539;-65
2021/09/23 10:01:41;;;;;;;9.13;1.48;;;;;;;17.05;62.75;99791.09;4990422;28;20045;-66
2021/09/23 10:04:09;;;;;;;6.82;1.27;;;;;;;17.01;63.11;99773.72;4986336;28;20047;-65
2021/09/23 10:06:37;;;;;;;9.57;1.48;;;;;;;17.03;62.99;99758.72;4989578;28;20038;-65
2021/09/23 10:09:04;;;;;;;10.50;1.27;;;;;;;17.29;63.19;99763.94;4969196;28;20113;-65
2021/09/23 10:11:30;;;;;;;9.57;1.67;;;;;;;17.47;60.86;99754.22;4989397;28;20088;-65
2021/09/23 10:13:57;;;;;;;8.40;1.25;;;;;;;17.23;61.39;99760.47;4985095;28;20038;-65
2021/09/23 10:16:23;;;;;;;4.10;1.23;;;;;;;17.08;61.52;99775.00;4990376;28;20081;-65
2021/09/23 10:18:50;;;;;;;11.57;1.10;;;;;;;16.93;62.57;99772.38;4984824;28;20041;-65
2021/09/23 10:21:16;;;;;;;5.85;1.23;;;;;;;16.78;61.96;99801.31;4980947;28;20053;-66
2021/09/23 10:23:43;;;;;;;5.90;1.30;;;;;;;16.65;62.89;99788.34;4988735;28;20043;-65
2021/09/23 10:26:13;;;;;;;14.35;1.73;;;;;;;16.64;63.93;99789.44;4986795;28;20057;-66
2021/09/23 10:28:45;;;;;;;7.45;1.55;;;;;;;16.66;62.41;99801.66;4987494;28;20064;-66
2021/09/23 10:31:15;;;;;;;7.40;1.50;;;;;;;16.61;63.83;99809.06;4986087;28;20046;-65
2021/09/23 10:33:41;;;;;;;7.53;1.55;;;;;;;16.52;63.63;99806.94;4977086;28;20114;-66
2021/09/23 10:36:07;;;;;;;14.48;1.90;;;;;;;16.78;63.24;99808.66;4981100;28;20173;-65
2021/09/23 10:38:34;;;;;;;12.15;1.98;;;;;;;16.76;62.24;99821.72;4967790;28;20563;-65
2021/09/23 10:41:01;;;;;;;8.88;1.20;;;;;;;16.60;63.04;99829.97;4982715;28;20030;-65
2021/09/23 10:43:26;;;;;;;14.75;1.90;;;;;;;16.60;63.01;99835.41;4990083;28;20037;-65
2021/09/23 10:45:53;;;;;;;10.63;1.80;;;;;;;16.72;63.87;99834.25;4988272;28;20026;-65
2021/09/23 10:48:21;;;;;;;14.20;1.55;;;;;;;17.11;61.16;99837.03;4989470;28;20027;-65
2021/09/23 10:50:48;;;;;;;15.13;1.83;;;;;;;16.93;62.58;99851.28;4988414;28;20034;-65
2021/09/23 10:53:13;;;;;;;12.10;2.00;;;;;;;17.26;61.65;99857.88;4989354;28;20049;-65
2021/09/23 10:55:39;;;;;;;11.68;1.80;;;;;;;17.17;61.36;99845.16;4983994;28;20384;-65
2021/09/23 10:58:09;;;;;;;10.82;1.77;;;;;;;17.27;61.91;99840.44;4985712;28;20070;-65
2021/09/23 11:00:36;;;;;;;13.40;1.83;;;;;;;17.23;60.52;99854.88;4992907;28;20045;-65
2021/09/23 11:03:07;;;;;;;15.25;1.90;;;;;;;17.29;61.01;99852.97;4992656;28;20046;-65
2021/09/23 11:05:33;;;;;;;10.02;2.00;;;;;;;17.49;61.19;99860.94;4991158;28;20052;-65
2021/09/23 11:08:01;;;;;;;12.90;2.13;;;;;;;17.54;60.63;99868.25;4992842;28;20475;-65
2021/09/23 11:10:27;;;;;;;12.70;1.85;;;;;;;17.59;61.18;99879.09;4987970;28;20462;-65
2021/09/23 11:12:57;;;;;;;10.50;1.50;;;;;;;17.72;59.15;99874.91;4993553;28;20407;-65
2021/09/23 11:15:28;;;;;;;12.85;2.00;;;;;;;17.19;60.59;99883.78;4989456;28;20057;-65
2021/09/23 11:17:59;;;;;;;14.73;2.17;;;;;;;16.66;60.95;99880.50;4991693;28;20483;-65
2021/09/23 11:20:29;;;;;;;14.87;2.30;;;;;;;16.65;61.95;99875.38;4987836;28;20531;-65
2021/09/23 11:23:07;;;;;;;10.18;1.55;;;;;;;16.62;61.75;99879.44;4987467;28;20423;-65